Capitol Logistics 407


KRFD
Chicago/Rockford International Airport
Rockford, Illinois, US
KBNA
Nashville International Airport
Nashville, Tennessee, US

Activity Log

Date Flight Route Aircraft Duration
11/26/2019 CPX407 JOT GUIDO J73 PXV GUMMA RYYMN2 B738 1h 21m
11/12/2019 CPX407 JOT GUIDO J73 PXV GUMMA RYYMN2 B738 1h 17m
10/31/2019 CPX407 N0458F410 RFD EON BVT J89 KURTZ LVT PASLY4 B752 1h 27m
09/18/2019 CPX407 N0450F410 RFD EON BVT J89 KURTZ LVT PASLY4 B752 1h 38m
03/30/2019 CPX407 JOT GUIDO J73 PXV GUMMA RYYMN2 B752 1h 19m
03/25/2019 CPX407 $$ B752 1h 25m

Route Details

Aircraft Information
Primary: Boeing 757-200SF
Backup: Boeing 737-800BCF
Route Data
Distance: 381nm
Sched. Duration: 1h 10m
Avg. Duration: 1h 25m (+15m)
Times Flown: 6
Recm'd Route: JOT GUIDO J73 PXV GUMMA RYYMN2
Planned Altitude: 35,000ft
Origin Wx: KRFD 051354Z 20006KT 10SM FEW130 OVC250 24/18 A2988 RMK AO2 SLP114 T02440183 $
Dest. Wx: KBNA 051353Z 30007KT 10SM SCT017 BKN023 BKN250 24/19 A2998 RMK AO2 SLP146 T02440194
Notes:

Financial History
Total Freight: 220,991lbs
Average Load: 36,832lbs/flt
Fuel Used: 62,773lbs
Avg. Fuel Used: 10,462lbs/flt
Fuel Expense: $45,041
Avg. Fuel Expense: $7,507
Avg. Fuel Cost: $0.72/lbs
Total Gross Income: $285,505
Pilot Pay: $764
Total Expenses: $31,147
Total Revenue: $207,884
Average Revenue: $47,584.19